Time;durP1;ratioP1;P1;durP2;ratioP2;P2;SDS_P1;SDS_P2;PMS_P1;PMS_P2;Temp;Humidity;BMP_temperature;BMP_pressure;BME280_temperature;BME280_humidity;BME280_pressure;Samples;Min_cycle;Max_cycle;Signal;HPM_P1;HPM_P2
2022/06/29 00:02:18;;;;;;;6.40;2.38;;;;;;;20.09;49.63;101704.72;5157591;28;20766;-38
2022/06/29 00:04:50;;;;;;;7.22;2.25;;;;;;;20.06;49.87;101698.91;5161892;28;20431;-36
2022/06/29 00:07:23;;;;;;;6.88;2.20;;;;;;;19.99;49.85;101699.66;5160541;28;20846;-36
2022/06/29 00:09:55;;;;;;;7.88;2.63;;;;;;;19.97;49.97;101700.88;5160902;28;20481;-39
2022/06/29 00:12:28;;;;;;;5.93;1.98;;;;;;;19.93;50.17;101705.78;5162498;28;20440;-36
2022/06/29 00:15:02;;;;;;;5.75;2.05;;;;;;;19.90;50.27;101705.34;5161809;28;20513;-35
2022/06/29 00:17:36;;;;;;;5.38;1.80;;;;;;;19.85;50.32;101689.84;5161226;28;20917;-37
2022/06/29 00:20:12;;;;;;;6.95;2.13;;;;;;;19.81;50.61;101694.72;5163691;28;20966;-37
2022/06/29 00:22:46;;;;;;;6.57;2.63;;;;;;;19.80;50.60;101693.06;5161461;28;20429;-37
2022/06/29 00:25:19;;;;;;;5.63;2.33;;;;;;;19.71;50.73;101686.16;5158408;28;20901;-36
2022/06/29 00:27:51;;;;;;;5.85;2.05;;;;;;;19.73;50.77;101691.38;5155968;28;20421;-36
2022/06/29 00:30:24;;;;;;;6.53;2.75;;;;;;;19.69;50.90;101682.84;5162639;28;20428;-35
2022/06/29 00:32:57;;;;;;;11.70;3.08;;;;;;;19.59;50.99;101676.94;5156685;28;20885;-36
2022/06/29 00:35:30;;;;;;;7.57;2.55;;;;;;;19.61;51.19;101680.25;5161953;28;20507;-38
2022/06/29 00:38:03;;;;;;;9.32;2.20;;;;;;;19.57;51.27;101674.47;5154862;28;20456;-37
2022/06/29 00:40:35;;;;;;;5.20;2.15;;;;;;;19.54;51.45;101677.50;5155744;28;20446;-36
2022/06/29 00:43:08;;;;;;;6.78;2.30;;;;;;;19.48;51.66;101664.00;5160445;28;20420;-37
2022/06/29 00:45:41;;;;;;;11.82;3.20;;;;;;;19.46;51.53;101660.72;5158441;28;24661;-39
2022/06/29 00:48:14;;;;;;;6.60;2.78;;;;;;;19.46;51.78;101676.78;5159004;28;20412;-35
2022/06/29 00:50:48;;;;;;;3.63;1.88;;;;;;;19.43;51.75;101667.28;5160310;28;20428;-35
2022/06/29 00:53:21;;;;;;;5.38;1.90;;;;;;;19.31;51.86;101648.16;5157447;28;20513;-36
2022/06/29 00:55:55;;;;;;;7.75;3.53;;;;;;;19.42;52.00;101664.75;5158378;28;20405;-38
2022/06/29 00:58:29;;;;;;;4.45;2.33;;;;;;;19.40;52.00;101662.28;5158540;28;20793;-36
2022/06/29 01:01:04;;;;;;;5.70;2.10;;;;;;;19.39;52.00;101659.78;5147864;28;20438;-36
2022/06/29 01:03:38;;;;;;;9.10;2.53;;;;;;;19.40;52.00;101661.47;5142249;28;20504;-36
2022/06/29 01:06:11;;;;;;;5.15;2.42;;;;;;;19.40;51.98;101656.09;5149054;28;30312;-36
2022/06/29 01:08:43;;;;;;;8.75;2.72;;;;;;;19.38;52.02;101658.13;5150833;28;20418;-36
2022/06/29 01:11:16;;;;;;;7.72;2.78;;;;;;;19.40;52.08;101656.09;5144051;28;20730;-38
2022/06/29 01:13:49;;;;;;;6.90;2.33;;;;;;;19.39;52.00;101643.72;5142073;28;20433;-38
2022/06/29 01:16:22;;;;;;;7.07;2.78;;;;;;;19.20;51.91;101616.53;5147496;28;20427;-36
2022/06/29 01:18:56;;;;;;;5.82;2.35;;;;;;;19.34;51.89;101646.97;5145135;28;20400;-39
2022/06/29 01:21:29;;;;;;;9.65;2.63;;;;;;;19.27;51.83;101636.19;5146216;28;20541;-36
2022/06/29 01:24:03;;;;;;;8.40;2.55;;;;;;;19.38;51.90;101642.88;5140471;28;20435;-36
2022/06/29 01:26:35;;;;;;;8.23;2.25;;;;;;;19.29;51.75;101631.47;5137438;28;20415;-36
2022/06/29 01:29:10;;;;;;;3.90;2.17;;;;;;;19.31;51.91;101642.00;5143771;28;20439;-35
2022/06/29 01:31:42;;;;;;;5.07;2.35;;;;;;;19.35;51.86;101648.63;5155344;28;20437;-37
2022/06/29 01:34:14;;;;;;;8.05;2.28;;;;;;;19.18;51.81;101623.09;5148254;28;20421;-38
2022/06/29 01:36:47;;;;;;;3.92;2.10;;;;;;;19.31;51.86;101642.81;5146986;28;20771;-35
2022/06/29 01:39:21;;;;;;;5.20;2.35;;;;;;;19.31;51.87;101640.13;5144157;28;20428;-36
2022/06/29 01:41:53;;;;;;;8.60;2.00;;;;;;;19.30;51.81;101637.66;5139890;28;20407;-36
2022/06/29 01:44:26;;;;;;;5.72;2.15;;;;;;;19.24;51.86;101631.19;5152693;28;21078;-37
2022/06/29 01:46:58;;;;;;;6.13;2.15;;;;;;;19.25;51.66;101643.56;5156624;28;20442;-36
2022/06/29 01:49:31;;;;;;;5.47;2.00;;;;;;;19.01;51.81;101606.38;5141804;28;20920;-36
2022/06/29 01:52:04;;;;;;;6.10;2.70;;;;;;;19.25;51.78;101638.22;5148942;28;20904;-37
2022/06/29 01:54:38;;;;;;;7.78;2.17;;;;;;;19.24;51.86;101643.75;5144708;28;20408;-36
2022/06/29 01:57:10;;;;;;;5.97;2.10;;;;;;;19.06;51.86;101615.53;5144319;28;20572;-35
2022/06/29 01:59:43;;;;;;;4.20;2.40;;;;;;;19.20;51.83;101640.63;5159695;28;20419;-37
2022/06/29 02:02:15;;;;;;;3.78;1.90;;;;;;;19.18;52.01;101642.66;5156680;28;20421;-36
2022/06/29 02:04:48;;;;;;;4.40;1.90;;;;;;;19.17;51.90;101635.66;5157728;28;20426;-36
2022/06/29 02:07:20;;;;;;;3.88;2.08;;;;;;;18.99;51.99;101609.28;5162026;28;20416;-39
2022/06/29 02:09:54;;;;;;;3.00;1.70;;;;;;;19.13;52.11;101629.81;5153376;28;20877;-36
2022/06/29 02:12:26;;;;;;;4.35;1.63;;;;;;;19.02;52.02;101605.41;5161618;28;20953;-36
2022/06/29 02:15:27;;;;;;;6.20;2.42;;;;;;;19.12;51.93;101616.63;5161328;28;20412;-35
2022/06/29 02:17:59;;;;;;;3.53;1.67;;;;;;;19.09;52.00;101623.19;5154626;28;20432;-36
2022/06/29 02:20:32;;;;;;;6.85;2.67;;;;;;;19.07;51.98;101613.69;5158830;28;20852;-36
2022/06/29 02:23:07;;;;;;;2.00;1.55;;;;;;;19.09;51.66;101617.00;5158293;28;20590;-35
2022/06/29 02:25:41;;;;;;;5.37;2.17;;;;;;;19.07;51.83;101608.31;5159364;28;20423;-35
2022/06/29 02:28:14;;;;;;;4.03;1.92;;;;;;;19.10;51.65;101610.63;5160756;28;20765;-36
2022/06/29 02:36:26;;;;;;;6.18;2.22;;;;;;;19.11;51.62;101604.28;5154177;28;20541;-36
2022/06/29 02:38:58;;;;;;;4.85;2.20;;;;;;;19.05;51.66;101595.13;5156614;28;20442;-37
2022/06/29 02:41:32;;;;;;;3.08;2.03;;;;;;;19.09;51.66;101601.75;5158718;28;20426;-36
2022/06/29 02:44:05;;;;;;;5.23;2.07;;;;;;;19.09;51.46;101603.63;5157093;28;20439;-36
2022/06/29 02:46:38;;;;;;;3.40;1.92;;;;;;;19.10;51.48;101605.28;5159056;28;20415;-35
2022/06/29 02:49:10;;;;;;;4.85;2.05;;;;;;;19.07;51.49;101592.25;5156908;28;20778;-34
2022/06/29 02:51:42;;;;;;;4.00;1.77;;;;;;;19.07;51.42;101589.56;5157257;28;20879;-36
2022/06/29 02:54:15;;;;;;;5.22;2.10;;;;;;;19.07;51.53;101589.56;5159014;28;20612;-36
2022/06/29 02:56:49;;;;;;;4.10;1.52;;;;;;;19.04;51.55;101587.28;5160258;28;20511;-35
2022/06/29 02:59:21;;;;;;;6.47;1.75;;;;;;;18.94;51.46;101568.84;5152422;28;20529;-35
2022/06/29 03:01:54;;;;;;;6.85;2.33;;;;;;;19.06;51.48;101590.59;5147652;28;20503;-37
2022/06/29 03:04:26;;;;;;;9.27;2.45;;;;;;;19.04;51.53;101581.91;5151598;28;20452;-36
2022/06/29 03:06:58;;;;;;;5.20;1.92;;;;;;;19.03;51.60;101585.63;5153938;28;21013;-38
2022/06/29 03:09:31;;;;;;;4.55;1.63;;;;;;;18.96;51.53;101577.53;5159836;28;20912;-35
2022/06/29 03:12:06;;;;;;;4.28;2.00;;;;;;;18.83;51.55;101543.41;5150781;28;20440;-35
2022/06/29 03:14:38;;;;;;;6.70;2.20;;;;;;;19.01;51.55;101576.94;5156188;28;20889;-42
2022/06/29 03:17:11;;;;;;;8.68;2.35;;;;;;;18.91;51.49;101563.03;5156142;28;20433;-36
2022/06/29 03:19:43;;;;;;;4.30;2.00;;;;;;;19.00;51.54;101569.94;5150512;28;20435;-35
2022/06/29 03:22:15;;;;;;;7.65;2.00;;;;;;;19.00;51.54;101569.94;5157815;28;20499;-35
2022/06/29 03:24:48;;;;;;;4.82;1.95;;;;;;;18.99;51.51;101562.94;5159254;28;20414;-39
2022/06/29 03:27:21;;;;;;;3.92;1.90;;;;;;;18.91;51.56;101549.66;5154233;28;20457;-38
2022/06/29 03:29:54;;;;;;;4.68;2.00;;;;;;;18.98;51.59;101555.91;5151667;28;20510;-35
2022/06/29 03:32:26;;;;;;;3.75;1.90;;;;;;;18.96;51.58;101555.28;5160854;28;20441;-35
2022/06/29 03:34:59;;;;;;;3.90;2.20;;;;;;;18.95;51.59;101564.31;5160103;28;20547;-36
2022/06/29 03:37:31;;;;;;;4.07;1.95;;;;;;;18.96;51.62;101558.78;5162245;28;20974;-35
2022/06/29 03:40:05;;;;;;;4.80;2.13;;;;;;;18.98;51.59;101555.91;5161009;28;20780;-35
2022/06/29 03:42:39;;;;;;;6.03;2.80;;;;;;;18.96;51.57;101545.41;5161831;28;20436;-37
2022/06/29 03:45:12;;;;;;;5.67;2.50;;;;;;;18.99;51.62;101552.22;5160395;28;22241;-37
2022/06/29 03:47:44;;;;;;;4.07;2.05;;;;;;;18.91;51.57;101536.25;5163855;28;20426;-37
2022/06/29 03:50:17;;;;;;;6.30;2.60;;;;;;;18.98;51.58;101548.69;5158975;28;20447;-35
2022/06/29 03:52:49;;;;;;;3.13;2.05;;;;;;;19.01;51.65;101555.53;5162669;28;20471;-37
2022/06/29 03:55:22;;;;;;;8.73;2.73;;;;;;;18.95;51.53;101537.53;5161435;28;20420;-35
2022/06/29 03:57:56;;;;;;;7.53;2.72;;;;;;;18.97;51.60;101543.53;5160284;28;20426;-36
2022/06/29 04:00:28;;;;;;;6.65;2.13;;;;;;;19.00;51.63;101552.03;5157629;28;20440;-35
2022/06/29 04:03:01;;;;;;;3.75;2.00;;;;;;;18.91;51.70;101534.41;5162783;28;20485;-36
2022/06/29 04:05:33;;;;;;;6.22;2.65;;;;;;;18.97;51.64;101546.22;5161147;28;20545;-37
2022/06/29 04:08:06;;;;;;;5.32;2.13;;;;;;;19.00;51.71;101546.66;5162833;28;20430;-35
2022/06/29 04:10:38;;;;;;;6.88;2.67;;;;;;;18.99;51.41;101542.34;5159662;28;20429;-36
2022/06/29 04:13:12;;;;;;;4.55;2.25;;;;;;;19.01;51.67;101544.81;5161981;28;20428;-36
2022/06/29 04:15:44;;;;;;;4.93;2.17;;;;;;;18.98;51.64;101529.97;5161163;28;20412;-34
2022/06/29 04:18:17;;;;;;;5.80;2.47;;;;;;;19.06;51.82;101539.75;5156793;28;20413;-37
2022/06/29 04:23:48;;;;;;;5.03;2.03;;;;;;;19.10;51.78;101538.34;5136505;28;20476;-36
2022/06/29 04:26:20;;;;;;;7.13;2.65;;;;;;;19.10;51.76;101527.63;5163094;28;20459;-36
2022/06/29 04:28:55;;;;;;;7.20;2.25;;;;;;;19.16;51.72;101532.22;5139005;28;20460;-36
2022/06/29 04:31:27;;;;;;;10.17;3.93;;;;;;;19.17;51.80;101533.91;5157574;28;20421;-36
2022/06/29 04:33:59;;;;;;;4.25;1.95;;;;;;;19.22;51.77;101536.81;5157019;28;20538;-35
2022/06/29 04:36:32;;;;;;;6.00;3.08;;;;;;;19.29;51.70;101540.41;5157190;28;20513;-36
2022/06/29 04:39:04;;;;;;;3.75;2.78;;;;;;;19.34;51.54;101529.13;5151915;28;20498;-36
2022/06/29 04:41:37;;;;;;;5.53;2.27;;;;;;;19.43;51.69;101522.63;5151980;28;20501;-36
2022/06/29 04:44:11;;;;;;;4.82;2.00;;;;;;;19.44;51.64;101523.44;5158143;28;20430;-36
2022/06/29 04:46:43;;;;;;;6.43;2.45;;;;;;;19.52;51.35;101526.00;5153957;28;20429;-37
2022/06/29 04:49:15;;;;;;;5.10;2.05;;;;;;;19.63;51.28;101522.78;5152170;28;20484;-35
2022/06/29 04:51:48;;;;;;;3.83;2.33;;;;;;;19.71;51.14;101524.56;5150572;28;20489;-36
2022/06/29 04:54:20;;;;;;;5.28;2.15;;;;;;;19.77;51.22;101523.78;5151045;28;20486;-36
2022/06/29 04:56:52;;;;;;;5.10;1.90;;;;;;;19.81;51.13;101512.47;5148365;28;20451;-37
2022/06/29 04:59:26;;;;;;;3.55;2.40;;;;;;;19.91;51.07;101508.59;5152008;28;20513;-36
2022/06/29 05:01:58;;;;;;;6.00;2.43;;;;;;;19.98;51.13;101507.66;5155238;28;20503;-36
2022/06/29 05:04:33;;;;;;;5.93;2.22;;;;;;;20.04;50.93;101503.38;5161922;28;20413;-35
2022/06/29 05:07:05;;;;;;;5.47;2.13;;;;;;;19.97;50.89;101486.38;5170631;28;20831;-36
2022/06/29 05:09:38;;;;;;;7.18;2.40;;;;;;;20.56;50.34;101515.44;5161076;28;20523;-36
2022/06/29 05:12:10;;;;;;;4.22;2.30;;;;;;;21.97;48.93;101502.06;5171495;28;20496;-36
2022/06/29 05:14:44;;;;;;;5.25;2.00;;;;;;;23.50;47.11;101487.13;5164456;28;20423;-38
2022/06/29 05:17:16;;;;;;;5.70;2.50;;;;;;;24.83;45.73;101492.78;5170522;28;20457;-37
2022/06/29 05:19:49;;;;;;;5.60;1.80;;;;;;;26.20;44.31;101491.88;5168118;28;20764;-36
2022/06/29 05:22:21;;;;;;;4.00;2.05;;;;;;;27.30;42.82;101495.38;5167106;28;20947;-36
2022/06/29 05:24:53;;;;;;;3.88;1.65;;;;;;;27.97;41.93;101499.97;5167781;28;21206;-36
2022/06/29 05:27:26;;;;;;;5.82;1.95;;;;;;;28.56;41.15;101501.31;5150112;28;20429;-36
2022/06/29 05:29:59;;;;;;;4.32;1.88;;;;;;;28.71;40.22;101423.47;5153106;28;20422;-36
2022/06/29 05:32:32;;;;;;;3.83;1.70;;;;;;;29.85;39.47;101491.34;5164658;28;20423;-37
2022/06/29 05:35:06;;;;;;;3.22;1.90;;;;;;;30.59;38.41;101478.63;5170400;28;20416;-37
2022/06/29 05:37:39;;;;;;;4.38;1.63;;;;;;;31.46;37.22;101487.75;5162272;28;20528;-36
2022/06/29 05:40:12;;;;;;;3.38;1.70;;;;;;;32.09;36.26;101485.50;5168256;28;23167;-37
2022/06/29 05:42:44;;;;;;;6.38;2.13;;;;;;;32.62;35.47;101486.94;5162637;28;20577;-37
2022/06/29 05:45:18;;;;;;;2.90;1.60;;;;;;;33.24;34.97;101477.19;5162204;28;20425;-38
2022/06/29 05:47:51;;;;;;;5.80;1.50;;;;;;;33.50;34.31;101456.69;5166452;28;20752;-38
2022/06/29 05:50:24;;;;;;;3.58;1.77;;;;;;;34.01;33.42;101463.56;5150565;28;20506;-37
2022/06/29 05:52:56;;;;;;;6.23;2.07;;;;;;;34.42;33.22;101458.38;5158602;28;20617;-40
2022/06/29 05:55:28;;;;;;;5.28;1.60;;;;;;;34.35;33.05;101463.44;5168193;28;20422;-38
2022/06/29 05:58:01;;;;;;;5.55;1.80;;;;;;;34.31;32.70;101465.09;5167072;28;20805;-37
2022/06/29 06:00:35;;;;;;;4.45;1.80;;;;;;;34.73;32.18;101454.41;5160156;28;20424;-37
2022/06/29 06:03:07;;;;;;;6.95;2.08;;;;;;;35.12;31.73;101473.28;5155881;28;20496;-38
2022/06/29 06:05:39;;;;;;;7.97;2.50;;;;;;;35.26;31.53;101465.09;5155244;28;20517;-38
2022/06/29 06:08:13;;;;;;;5.28;1.73;;;;;;;35.54;30.95;101449.50;5168220;28;20416;-39
2022/06/29 06:10:45;;;;;;;9.32;2.60;;;;;;;35.69;30.41;101462.94;5170636;28;20413;-38
2022/06/29 06:13:17;;;;;;;5.90;2.53;;;;;;;35.83;30.59;101456.63;5169881;28;20498;-38
2022/06/29 06:15:51;;;;;;;8.95;2.05;;;;;;;36.42;29.60;101460.34;5169287;28;20412;-38
2022/06/29 06:18:23;;;;;;;6.37;2.57;;;;;;;36.87;29.26;101454.94;5159804;28;20490;-38
2022/06/29 06:20:56;;;;;;;5.38;2.40;;;;;;;36.82;29.13;101457.81;5168575;28;20460;-38
2022/06/29 06:23:29;;;;;;;5.23;1.97;;;;;;;37.07;28.73;101439.88;5168295;28;21180;-38
2022/06/29 06:26:02;;;;;;;6.80;1.92;;;;;;;37.70;28.70;101451.72;5169911;28;20904;-37
2022/06/29 06:28:34;;;;;;;5.72;2.13;;;;;;;38.24;27.62;101463.38;5167450;28;20413;-38
2022/06/29 06:31:08;;;;;;;5.38;2.00;;;;;;;38.67;27.49;101459.88;5169560;28;20425;-37
2022/06/29 06:33:41;;;;;;;5.30;2.17;;;;;;;38.35;27.10;101426.09;5168935;28;20496;-39
2022/06/29 06:36:13;;;;;;;4.95;1.90;;;;;;;38.47;27.45;101459.41;5163830;28;20421;-38
2022/06/29 06:38:46;;;;;;;3.70;1.90;;;;;;;38.66;27.06;101449.97;5165237;28;20428;-38
2022/06/29 06:41:25;;;;;;;8.05;1.90;;;;;;;38.75;27.06;101454.34;5156391;28;20420;-38
2022/06/29 06:43:59;;;;;;;7.38;1.92;;;;;;;38.28;27.17;101428.50;5146897;28;20415;-38
2022/06/29 06:46:34;;;;;;;4.33;1.60;;;;;;;38.19;27.24;101458.03;5152467;28;20483;-38
2022/06/29 06:49:08;;;;;;;6.53;2.10;;;;;;;38.24;27.25;101460.63;5141667;28;20468;-41
2022/06/29 06:51:40;;;;;;;6.70;1.90;;;;;;;38.02;27.26;101459.63;5139366;28;20461;-38
2022/06/29 06:54:12;;;;;;;4.90;1.80;;;;;;;37.69;27.55;101450.88;5151771;28;20816;-44
2022/06/29 06:56:45;;;;;;;8.10;2.00;;;;;;;37.73;27.17;101462.09;5159793;28;20468;-38
2022/06/29 06:59:17;;;;;;;8.07;2.15;;;;;;;37.67;27.37;101460.63;5154807;28;20589;-38
2022/06/29 07:01:51;;;;;;;4.65;1.85;;;;;;;37.80;27.15;101456.94;5153130;28;20433;-38
2022/06/29 07:04:23;;;;;;;9.25;1.70;;;;;;;37.93;26.95;101457.97;5155369;28;20837;-41
2022/06/29 07:06:56;;;;;;;9.68;2.22;;;;;;;38.17;26.57;101458.34;5157514;28;20526;-38
2022/06/29 07:09:28;;;;;;;9.65;2.45;;;;;;;38.27;26.64;101457.22;5159166;28;20421;-40
2022/06/29 07:12:01;;;;;;;8.63;2.50;;;;;;;38.33;26.53;101464.22;5161729;28;20500;-39
2022/06/29 07:14:33;;;;;;;9.82;1.95;;;;;;;38.63;26.47;101445.09;5153315;28;20416;-39
2022/06/29 07:17:07;;;;;;;5.07;1.80;;;;;;;38.78;26.28;101425.28;5157755;28;20472;-39
2022/06/29 07:19:39;;;;;;;10.63;2.10;;;;;;;39.07;26.09;101454.16;5158217;28;20428;-39
2022/06/29 07:22:12;;;;;;;8.45;2.20;;;;;;;39.10;25.83;101440.50;5159324;28;21838;-39
2022/06/29 07:24:44;;;;;;;9.43;2.60;;;;;;;39.04;26.04;101438.25;5167528;28;20502;-39
2022/06/29 07:27:17;;;;;;;6.38;2.17;;;;;;;39.04;25.95;101438.25;5157588;28;20417;-38
2022/06/29 07:29:52;;;;;;;6.00;1.83;;;;;;;38.86;26.28;101446.56;5167924;28;20428;-39
2022/06/29 07:32:26;;;;;;;9.45;2.10;;;;;;;38.32;26.63;101446.03;5152069;28;20457;-39
2022/06/29 07:34:58;;;;;;;6.03;2.38;;;;;;;38.19;26.72;101435.97;5168940;28;20742;-39
2022/06/29 07:37:31;;;;;;;5.43;1.80;;;;;;;37.89;27.12;101444.00;5169028;28;20471;-39
2022/06/29 07:40:05;;;;;;;7.95;1.77;;;;;;;37.83;26.83;101437.00;5167881;28;20421;-38
2022/06/29 07:42:38;;;;;;;12.23;2.53;;;;;;;38.03;26.91;101444.72;5167041;28;20830;-40
2022/06/29 07:45:12;;;;;;;7.97;2.45;;;;;;;37.99;26.85;101438.19;5153247;28;20418;-39
2022/06/29 07:47:45;;;;;;;9.45;1.58;;;;;;;37.54;27.19;101438.38;5149834;28;20973;-41
2022/06/29 07:50:18;;;;;;;8.27;1.63;;;;;;;37.36;27.24;101420.91;5150286;28;20491;-38
2022/06/29 07:52:50;;;;;;;7.28;2.10;;;;;;;37.68;26.91;101445.72;5153144;28;20525;-38
2022/06/29 07:55:24;;;;;;;7.20;1.90;;;;;;;37.41;27.11;101438.44;5147976;28;20411;-39
2022/06/29 07:57:57;;;;;;;5.70;1.92;;;;;;;36.52;27.63;101407.09;5149570;28;20891;-38
2022/06/29 08:00:29;;;;;;;10.75;1.80;;;;;;;36.54;27.68;101433.13;5148820;28;20505;-38
2022/06/29 08:03:03;;;;;;;6.85;1.88;;;;;;;36.62;27.75;101440.66;5150058;28;20786;-39
2022/06/29 08:05:36;;;;;;;5.82;1.95;;;;;;;36.60;27.53;101437.41;5153250;28;20411;-42
2022/06/29 08:08:09;;;;;;;9.60;1.97;;;;;;;36.47;27.72;101427.22;5148316;28;20458;-39
2022/06/29 08:10:41;;;;;;;6.50;2.10;;;;;;;36.65;27.49;101431.78;5148284;28;20814;-37
2022/06/29 08:13:13;;;;;;;11.10;2.33;;;;;;;36.87;27.39;101436.47;5153451;28;20410;-39
2022/06/29 08:15:46;;;;;;;5.40;1.52;;;;;;;36.81;27.26;101434.16;5149682;28;20969;-39
2022/06/29 08:18:20;;;;;;;3.90;1.40;;;;;;;36.38;27.70;101434.59;5153412;28;20426;-40
2022/06/29 08:20:53;;;;;;;10.27;1.70;;;;;;;36.11;27.84;101430.81;5134241;28;20425;-40
2022/06/29 08:23:25;;;;;;;8.02;1.60;;;;;;;35.89;28.23;101430.69;5145077;28;20448;-38
2022/06/29 08:25:59;;;;;;;4.63;2.20;;;;;;;35.77;28.15;101422.94;5152404;28;20426;-39
2022/06/29 08:28:31;;;;;;;6.57;1.80;;;;;;;35.51;28.34;101437.16;5152476;28;20499;-39
2022/06/29 08:31:04;;;;;;;5.28;1.63;;;;;;;35.10;28.54;101428.84;5153835;28;20994;-40
2022/06/29 08:33:37;;;;;;;7.47;1.63;;;;;;;34.95;28.40;101426.34;5150055;28;20950;-39
2022/06/29 08:36:10;;;;;;;4.65;1.67;;;;;;;34.50;28.76;101434.97;5153461;28;20420;-39
2022/06/29 08:38:45;;;;;;;6.43;1.60;;;;;;;33.99;29.07;101421.91;5151404;28;20430;-38
2022/06/29 08:41:18;;;;;;;4.93;1.90;;;;;;;33.88;28.96;101420.41;5151751;28;20428;-42
2022/06/29 08:43:51;;;;;;;4.18;1.63;;;;;;;33.71;29.17;101431.84;5149192;28;20529;-39
2022/06/29 08:46:24;;;;;;;7.18;1.70;;;;;;;33.61;29.35;101423.75;5144906;28;20522;-41
2022/06/29 08:48:57;;;;;;;8.88;1.58;;;;;;;33.58;29.08;101427.06;5146473;28;20541;-38
2022/06/29 08:51:35;;;;;;;5.35;1.73;;;;;;;33.40;29.36;101410.22;5148298;28;20497;-39
2022/06/29 08:54:08;;;;;;;3.28;1.80;;;;;;;33.06;29.64;101421.25;5155952;28;20428;-39
2022/06/29 08:56:40;;;;;;;3.72;1.40;;;;;;;32.81;29.57;101423.03;5150619;28;20944;-40
2022/06/29 08:59:13;;;;;;;3.77;1.70;;;;;;;32.95;29.55;101423.22;5149640;28;20436;-39
2022/06/29 09:01:45;;;;;;;4.20;1.50;;;;;;;33.17;29.11;101419.22;5147920;28;20425;-38
2022/06/29 09:04:19;;;;;;;5.00;1.70;;;;;;;33.32;29.07;101424.53;5146692;28;20429;-41
2022/06/29 09:06:55;;;;;;;4.60;1.27;;;;;;;33.18;29.15;101418.94;5153960;28;20922;-38
2022/06/29 09:09:27;;;;;;;6.40;1.75;;;;;;;32.92;29.28;101415.59;5151973;28;20503;-40
2022/06/29 09:12:00;;;;;;;6.47;1.60;;;;;;;32.68;29.31;101420.97;5152360;28;20414;-39
2022/06/29 09:14:33;;;;;;;4.40;2.30;;;;;;;32.46;29.66;101420.53;5148925;28;20524;-39
2022/06/29 09:17:06;;;;;;;4.07;1.48;;;;;;;32.42;29.65;101412.06;5153277;28;20908;-41
2022/06/29 09:19:48;;;;;;;6.70;1.48;;;;;;;32.68;29.30;101418.22;5149108;28;20910;-39
2022/06/29 09:22:21;;;;;;;5.93;1.50;;;;;;;32.90;29.36;101412.31;5156620;28;20966;-43
2022/06/29 09:24:54;;;;;;;5.03;1.48;;;;;;;32.99;28.99;101410.63;5152177;28;20420;-39
2022/06/29 09:27:26;;;;;;;3.83;1.30;;;;;;;32.86;29.19;101419.47;5157566;28;20762;-38
2022/06/29 09:29:59;;;;;;;2.57;1.30;;;;;;;32.43;29.67;101408.25;5152514;28;20434;-40
2022/06/29 09:33:00;;;;;;;3.55;1.38;;;;;;;32.32;29.64;101412.13;5153851;28;20420;-40
2022/06/29 09:35:35;;;;;;;2.63;1.20;;;;;;;32.28;29.65;101395.47;5143587;28;20420;-42
2022/06/29 09:38:26;;;;;;;4.40;1.20;;;;;;;32.49;29.63;101407.16;5155688;28;20428;-42
2022/06/29 09:41:01;;;;;;;8.90;1.55;;;;;;;32.72;29.26;101404.78;5145791;28;20418;-39
2022/06/29 09:43:36;;;;;;;4.50;1.60;;;;;;;32.82;29.21;101411.00;5157260;28;20422;-39
2022/06/29 09:46:11;;;;;;;5.50;1.70;;;;;;;32.75;29.26;101404.22;5154769;28;20880;-46
2022/06/29 09:48:44;;;;;;;3.75;1.30;;;;;;;32.56;29.18;101413.09;5150450;28;20499;-40
2022/06/29 09:51:32;;;;;;;3.13;1.30;;;;;;;32.45;29.50;101406.06;5151915;28;20945;-40
2022/06/29 09:54:08;;;;;;;7.28;2.05;;;;;;;32.40;29.40;101408.81;5152343;28;20424;-38
2022/06/29 09:56:47;;;;;;;3.75;1.70;;;;;;;32.31;29.42;101410.50;5154322;28;20446;-39
2022/06/29 10:02:34;;;;;;;5.32;1.88;;;;;;;32.42;29.38;101390.19;5152584;28;20438;-39
2022/06/29 10:02:37;;;;;;;5.72;1.75;;;;;;;32.54;29.18;101393.44;5147188;28;20412;-39
2022/06/29 10:05:13;;;;;;;5.88;1.55;;;;;;;32.45;29.34;101373.25;5148917;28;20479;-39
2022/06/29 10:07:48;;;;;;;7.50;1.80;;;;;;;32.44;29.09;101374.38;5152941;28;20813;-39
2022/06/29 10:10:24;;;;;;;4.07;1.45;;;;;;;32.67;29.21;101391.16;5149408;28;20439;-41
2022/06/29 10:16:18;;;;;;;6.07;1.83;;;;;;;32.96;28.83;101394.75;5136427;28;20503;-38
2022/06/29 10:19:23;;;;;;;3.20;1.75;;;;;;;33.05;28.61;101384.84;5150334;28;20428;-38
2022/06/29 10:21:59;;;;;;;2.63;1.30;;;;;;;33.26;28.25;101381.91;5143990;28;20871;-41
2022/06/29 10:24:33;;;;;;;3.10;1.10;;;;;;;33.48;28.08;101384.97;5154325;28;20433;-39
2022/06/29 10:27:09;;;;;;;2.45;1.08;;;;;;;33.64;27.80;101371.13;5151888;28;20816;-39
2022/06/29 10:29:41;;;;;;;24.30;1.90;;;;;;;33.84;27.79;101375.53;5151377;28;20512;-40
2022/06/29 10:32:19;;;;;;;5.85;1.10;;;;;;;33.93;27.46;101379.25;5150892;28;20430;-39
2022/06/29 10:35:11;;;;;;;3.50;1.00;;;;;;;33.89;27.40;101376.28;5151936;28;20512;-38
2022/06/29 10:37:53;;;;;;;1.90;0.95;;;;;;;33.62;27.43;101376.88;5146129;28;20441;-40
2022/06/29 10:40:30;;;;;;;5.28;1.10;;;;;;;33.41;27.78;101370.78;5139548;28;20996;-39
2022/06/29 10:43:20;;;;;;;6.22;1.35;;;;;;;33.52;27.91;101374.28;5148115;28;20436;-37
2022/06/29 10:45:57;;;;;;;6.00;1.40;;;;;;;33.61;27.74;101360.75;5137380;28;20873;-39
2022/06/29 10:48:31;;;;;;;4.43;1.10;;;;;;;33.75;27.39;101372.63;5146178;28;20827;-38
2022/06/29 10:51:04;;;;;;;3.42;0.95;;;;;;;33.80;27.42;101364.34;5147444;28;20439;-38
2022/06/29 10:53:36;;;;;;;2.92;1.15;;;;;;;34.03;27.39;101361.88;5154177;28;20456;-42
2022/06/29 10:56:10;;;;;;;3.42;0.88;;;;;;;34.29;26.98;101365.09;5153944;28;20434;-39
2022/06/29 10:58:42;;;;;;;2.72;0.93;;;;;;;34.42;26.68;101359.66;5151105;28;20564;-41
2022/06/29 11:01:26;;;;;;;3.30;1.15;;;;;;;34.25;26.46;101359.34;5150294;28;20484;-40
2022/06/29 11:03:58;;;;;;;5.05;1.20;;;;;;;34.01;26.88;101355.88;5145464;28;20417;-39
2022/06/29 11:12:14;;;;;;;4.50;1.43;;;;;;;33.80;26.60;101353.38;5148831;28;20901;-38
2022/06/29 11:17:48;;;;;;;4.10;1.55;;;;;;;33.58;26.52;101367.63;5142484;28;20420;-42
2022/06/29 11:20:23;;;;;;;2.25;0.90;;;;;;;33.34;26.89;101351.16;5162487;28;20423;-39
2022/06/29 11:22:56;;;;;;;6.88;1.13;;;;;;;32.81;27.57;101349.19;5160999;28;20508;-38
2022/06/29 11:25:36;;;;;;;3.55;0.88;;;;;;;32.77;27.32;101350.06;5157261;28;20425;-38
2022/06/29 11:28:11;;;;;;;3.40;1.08;;;;;;;32.98;27.14;101350.69;5152385;28;20427;-39
2022/06/29 11:30:57;;;;;;;1.73;0.80;;;;;;;33.01;26.81;101309.91;5157686;28;20486;-41
2022/06/29 11:33:31;;;;;;;3.42;0.95;;;;;;;33.47;27.03;101355.94;5144418;28;20441;-40
2022/06/29 11:36:09;;;;;;;2.03;0.77;;;;;;;33.34;27.07;101323.78;5153440;28;20452;-40
2022/06/29 11:38:43;;;;;;;4.40;1.25;;;;;;;33.59;26.68;101341.06;5167958;28;20488;-39
2022/06/29 11:41:18;;;;;;;5.65;1.17;;;;;;;33.44;26.74;101340.09;5155430;28;20416;-46
2022/06/29 11:44:08;;;;;;;2.55;1.33;;;;;;;33.30;27.07;101341.91;5141242;28;20907;-39
2022/06/29 11:46:40;;;;;;;1.95;0.80;;;;;;;33.29;26.92;101343.00;5145020;28;20420;-40
2022/06/29 11:52:12;;;;;;;3.23;0.90;;;;;;;33.10;26.98;101350.31;5158921;28;20487;-39
2022/06/29 11:54:52;;;;;;;2.72;0.85;;;;;;;33.11;26.77;101336.38;5160529;28;20442;-40
2022/06/29 11:57:27;;;;;;;5.80;1.10;;;;;;;33.30;26.72;101339.16;5150687;28;20523;-40
2022/06/29 12:00:08;;;;;;;2.70;1.00;;;;;;;33.57;26.09;101337.78;5161206;28;20429;-36
2022/06/29 12:02:40;;;;;;;2.88;0.90;;;;;;;33.62;26.06;101324.03;5158126;28;20515;-37
2022/06/29 12:05:13;;;;;;;2.10;0.70;;;;;;;33.72;26.43;101334.84;5161327;28;23256;-38
2022/06/29 12:07:45;;;;;;;2.13;1.00;;;;;;;33.87;26.15;101339.31;5145371;28;21008;-42
2022/06/29 12:10:18;;;;;;;7.53;1.20;;;;;;;34.06;25.76;101333.88;5153942;28;20910;-39
2022/06/29 12:12:50;;;;;;;4.03;1.10;;;;;;;34.06;25.97;101328.41;5152861;28;20422;-39
2022/06/29 12:15:24;;;;;;;5.50;1.30;;;;;;;34.11;26.08;101328.34;5155983;28;20773;-38
2022/06/29 12:17:56;;;;;;;3.63;0.98;;;;;;;34.09;26.01;101330.53;5149384;28;20422;-38
2022/06/29 12:20:29;;;;;;;15.55;1.90;;;;;;;34.03;25.68;101329.00;5154705;28;20409;-38